North Madison, Indiana
Current Conditions -  °F | °C
As of 6:53 AM on Monday 24 Nov 2014 (Local Time) from KLOU Reporting Station
Broken Clouds Broken Clouds  
Wind Chill: 62°   Ceiling: 3400
Heat Index: 62°   Visibility: 10mi
Dew Point: 52°   Wind: 18mph
Humidity: 70%   Direction: 190°S
Pressure: 29.32"   Gusts: 37mph
Location:  38.7969°N, 85.4186°W
Report Text: KLOU 241153Z 19016G32KT 10SM BKN034 17/11 A2932 RMK AO2 PK WND 21033/1137 SLP927 60002 70078 T01670111 10172 20156 56011
Loading
Personal Weather Stations






























Interactive Weather Map New forecast layout! Learn more

10-Day Weather Forecast

Advertisements
Track Severe Weather on mobile